Time;durP1;ratioP1;P1;durP2;ratioP2;P2;SDS_P1;SDS_P2;PMS_P1;PMS_P2;Temp;Humidity;BMP_temperature;BMP_pressure;BME280_temperature;BME280_humidity;BME280_pressure;Samples;Min_cycle;Max_cycle;Signal;HPM_P1;HPM_P2
2022/01/04 00:02:24;;;;;;;;;;;7.80;99.90;;;;;;5147137;27;19967;-56
2022/01/04 00:04:50;;;;;;;;;;;7.80;99.90;;;;;;5138288;27;19927;-56
2022/01/04 00:07:16;;;;;;;;;;;7.80;99.90;;;;;;5142139;27;19927;-56
2022/01/04 00:09:43;;;;;;;;;;;7.90;99.90;;;;;;5130412;27;20283;-57
2022/01/04 00:14:54;;;;;;;;;;;7.90;99.90;;;;;;5138382;27;20403;-56
2022/01/04 00:17:19;;;;;;;;;;;7.90;99.90;;;;;;5139067;27;19975;-57
2022/01/04 00:19:46;;;;;;;;;;;7.90;99.90;;;;;;5145905;27;20336;-56
2022/01/04 00:22:12;;;;;;;;;;;7.90;99.90;;;;;;5134411;27;19978;-56
2022/01/04 00:24:37;;;;;;;;;;;7.90;99.90;;;;;;5148553;27;19993;-56
2022/01/04 00:27:03;;;;;;;;;;;8.00;99.90;;;;;;5137144;27;19927;-56
2022/01/04 00:29:29;;;;;;;;;;;8.00;99.90;;;;;;5143788;27;19927;-56
2022/01/04 00:31:54;;;;;;;;;;;8.00;99.90;;;;;;5145645;27;20322;-56
2022/01/04 00:34:20;;;;;;;;;;;8.40;99.90;;;;;;5134448;27;19966;-56
2022/01/04 00:36:45;;;;;;;;;;;8.00;99.90;;;;;;5144125;27;19928;-56
2022/01/04 00:39:11;;;;;;;;;;;8.00;99.90;;;;;;5140381;27;19934;-56
2022/01/04 00:41:36;;;;;;;;;;;8.00;99.90;;;;;;5149261;27;19927;-56
2022/01/04 00:44:02;;;;;;;;;;;8.00;99.90;;;;;;5133772;27;20000;-56
2022/01/04 00:46:28;;;;;;;;;;;8.00;99.90;;;;;;5144206;27;20300;-56
2022/01/04 00:49:09;;;;;;;;;;;8.10;99.90;;;;;;5137984;27;20009;-57
2022/01/04 00:51:35;;;;;;;;;;;8.10;99.90;;;;;;5137210;27;19934;-58
2022/01/04 00:54:01;;;;;;;;;;;8.00;99.90;;;;;;5147091;27;19937;-59
2022/01/04 00:56:26;;;;;;;;;;;8.00;99.90;;;;;;5133991;27;19923;-57
2022/01/04 00:58:53;;;;;;;;;;;7.90;99.90;;;;;;5140271;27;19923;-57
2022/01/04 01:01:19;;;;;;;;;;;7.90;99.90;;;;;;5137161;27;19928;-61
2022/01/04 01:03:44;;;;;;;;;;;7.90;99.90;;;;;;5133161;27;20344;-61
2022/01/04 01:06:10;;;;;;;;;;;8.00;99.90;;;;;;5146800;27;20377;-56
2022/01/04 01:08:36;;;;;;;;;;;7.80;99.90;;;;;;5128056;27;20395;-57
2022/01/04 01:11:01;;;;;;;;;;;7.70;99.90;;;;;;5138170;27;19964;-63
2022/01/04 01:13:27;;;;;;;;;;;7.80;99.90;;;;;;5137820;27;19953;-55
2022/01/04 01:15:53;;;;;;;;;;;7.80;99.90;;;;;;5145687;27;19927;-59
2022/01/04 01:18:18;;;;;;;;;;;7.80;99.90;;;;;;5132090;27;19938;-62
2022/01/04 01:20:48;;;;;;;;;;;7.80;99.90;;;;;;5143777;27;20007;-63
2022/01/04 01:23:13;;;;;;;;;;;7.80;99.90;;;;;;5140618;27;19927;-68
2022/01/04 01:25:39;;;;;;;;;;;8.40;99.90;;;;;;5147243;27;19927;-58
2022/01/04 01:28:04;;;;;;;;;;;7.80;99.90;;;;;;5132433;27;20000;-56
2022/01/04 01:30:33;;;;;;;;;;;7.80;99.90;;;;;;5144870;27;20376;-59
2022/01/04 01:32:59;;;;;;;;;;;7.80;99.90;;;;;;5140934;27;19927;-56
2022/01/04 01:35:25;;;;;;;;;;;7.70;99.90;;;;;;5141880;27;19927;-56
2022/01/04 01:37:50;;;;;;;;;;;7.80;99.90;;;;;;5132763;27;19931;-56
2022/01/04 01:40:16;;;;;;;;;;;7.80;99.90;;;;;;5146907;27;19933;-56
2022/01/04 01:42:42;;;;;;;;;;;7.80;99.90;;;;;;5143807;27;19931;-56
2022/01/04 01:45:09;;;;;;;;;;;7.80;99.90;;;;;;5138949;27;20342;-56
2022/01/04 01:47:37;;;;;;;;;;;7.80;99.90;;;;;;5135668;27;20486;-56
2022/01/04 01:50:03;;;;;;;;;;;7.80;99.90;;;;;;5145951;27;19927;-56
2022/01/04 01:52:28;;;;;;;;;;;7.80;99.90;;;;;;5133620;27;19933;-59
2022/01/04 01:54:54;;;;;;;;;;;7.90;99.90;;;;;;5141559;27;20384;-56
2022/01/04 01:57:20;;;;;;;;;;;7.90;99.90;;;;;;5127139;27;19930;-56
2022/01/04 01:59:45;;;;;;;;;;;7.90;99.90;;;;;;5142565;27;19927;-60
2022/01/04 02:02:11;;;;;;;;;;;7.90;99.90;;;;;;5131161;27;19927;-56
2022/01/04 02:04:36;;;;;;;;;;;7.90;99.90;;;;;;5135785;27;19927;-56
2022/01/04 02:07:02;;;;;;;;;;;8.00;99.90;;;;;;5140516;27;19950;-67
2022/01/04 02:09:28;;;;;;;;;;;8.00;99.90;;;;;;5128600;27;19931;-60
2022/01/04 02:11:54;;;;;;;;;;;8.00;99.90;;;;;;5145274;27;19975;-57
2022/01/04 02:14:19;;;;;;;;;;;8.00;99.90;;;;;;5132457;27;19927;-60
2022/01/04 02:16:45;;;;;;;;;;;8.00;99.90;;;;;;5142634;27;19931;-60
2022/01/04 02:19:11;;;;;;;;;;;8.00;99.90;;;;;;5138591;27;20338;-59
2022/01/04 02:21:36;;;;;;;;;;;8.00;99.90;;;;;;5146402;27;19927;-60
2022/01/04 02:24:03;;;;;;;;;;;8.00;99.90;;;;;;5132007;27;20334;-56
2022/01/04 02:26:30;;;;;;;;;;;8.00;99.90;;;;;;5145360;27;19950;-57
2022/01/04 02:28:55;;;;;;;;;;;8.00;99.90;;;;;;5136607;27;19927;-56
2022/01/04 02:31:21;;;;;;;;;;;8.10;99.90;;;;;;5136047;27;19931;-58
2022/01/04 02:33:46;;;;;;;;;;;8.00;99.90;;;;;;5143604;27;19927;-59
2022/01/04 02:36:12;;;;;;;;;;;8.10;99.90;;;;;;5132530;27;19933;-56
2022/01/04 02:38:38;;;;;;;;;;;8.60;99.90;;;;;;5143299;27;19937;-57
2022/01/04 02:41:03;;;;;;;;;;;8.10;99.90;;;;;;5131015;27;19928;-56
2022/01/04 02:43:29;;;;;;;;;;;8.70;99.90;;;;;;5127946;27;20381;-58
2022/01/04 02:45:55;;;;;;;;;;;8.10;99.90;;;;;;5144972;27;20300;-60
2022/01/04 02:48:20;;;;;;;;;;;8.10;99.90;;;;;;5132251;27;20104;-57
2022/01/04 02:50:47;;;;;;;;;;;8.00;99.90;;;;;;5145571;27;19934;-58
2022/01/04 02:53:12;;;;;;;;;;;8.00;99.90;;;;;;5142991;27;20477;-57
2022/01/04 02:55:38;;;;;;;;;;;8.00;99.90;;;;;;5139260;27;20018;-58
2022/01/04 02:58:03;;;;;;;;;;;8.00;99.90;;;;;;5139310;27;19949;-58
2022/01/04 03:00:29;;;;;;;;;;;8.00;99.90;;;;;;5148915;27;19935;-57
2022/01/04 03:02:55;;;;;;;;;;;8.50;99.90;;;;;;5134321;27;20006;-59
2022/01/04 03:05:21;;;;;;;;;;;8.10;99.90;;;;;;5144167;27;20060;-56
2022/01/04 03:07:46;;;;;;;;;;;8.00;99.90;;;;;;5139646;27;20361;-59
2022/01/04 03:10:12;;;;;;;;;;;7.90;99.90;;;;;;5149420;27;20435;-57
2022/01/04 03:12:39;;;;;;;;;;;8.00;99.90;;;;;;5136678;27;19950;-57
2022/01/04 03:15:05;;;;;;;;;;;8.00;99.90;;;;;;5142685;27;19927;-57
2022/01/04 03:17:31;;;;;;;;;;;7.90;99.90;;;;;;5144331;27;20505;-57
2022/01/04 03:19:56;;;;;;;;;;;7.90;99.90;;;;;;5135889;27;19935;-57
2022/01/04 03:22:22;;;;;;;;;;;7.90;99.90;;;;;;5148939;27;19934;-56
2022/01/04 03:24:48;;;;;;;;;;;7.90;99.90;;;;;;5138811;27;20038;-56
2022/01/04 03:27:13;;;;;;;;;;;7.90;99.90;;;;;;5141999;27;19974;-56
2022/01/04 03:29:39;;;;;;;;;;;7.90;99.90;;;;;;5146324;27;19934;-57
2022/01/04 03:32:05;;;;;;;;;;;8.00;99.90;;;;;;5134909;27;20312;-56
2022/01/04 03:34:30;;;;;;;;;;;7.90;99.90;;;;;;5148186;27;19927;-60
2022/01/04 03:36:56;;;;;;;;;;;7.90;99.90;;;;;;5139451;27;20035;-59
2022/01/04 03:39:21;;;;;;;;;;;8.50;99.90;;;;;;5134488;27;20526;-56
2022/01/04 03:41:47;;;;;;;;;;;7.90;99.90;;;;;;5133533;27;19938;-56
2022/01/04 03:44:18;;;;;;;;;;;7.90;99.90;;;;;;5142387;27;19927;-57
2022/01/04 03:46:44;;;;;;;;;;;8.30;99.90;;;;;;5137842;27;19953;-57
2022/01/04 03:49:10;;;;;;;;;;;7.90;99.90;;;;;;5141958;27;19935;-56
2022/01/04 03:51:35;;;;;;;;;;;7.80;99.90;;;;;;5145234;27;19927;-57
2022/01/04 03:54:02;;;;;;;;;;;7.80;99.90;;;;;;5134905;27;19929;-58
2022/01/04 03:56:28;;;;;;;;;;;7.80;99.90;;;;;;5146299;27;19949;-59
2022/01/04 03:58:53;;;;;;;;;;;7.80;99.90;;;;;;5136313;27;20056;-56
2022/01/04 04:01:19;;;;;;;;;;;7.80;99.90;;;;;;5142194;27;19924;-59
2022/01/04 04:03:45;;;;;;;;;;;7.60;99.90;;;;;;5146708;27;19927;-58
2022/01/04 04:06:10;;;;;;;;;;;7.80;99.90;;;;;;5134091;27;20022;-58
2022/01/04 04:08:36;;;;;;;;;;;7.70;99.90;;;;;;5141806;27;19970;-58
2022/01/04 04:11:02;;;;;;;;;;;7.70;99.90;;;;;;5142297;27;19927;-58
2022/01/04 04:13:28;;;;;;;;;;;7.70;99.90;;;;;;5143676;27;19975;-56
2022/01/04 04:15:53;;;;;;;;;;;7.70;99.90;;;;;;5136674;27;19930;-56
2022/01/04 04:18:19;;;;;;;;;;;7.80;99.90;;;;;;5133706;27;19927;-56
2022/01/04 04:20:44;;;;;;;;;;;7.70;99.90;;;;;;5144912;27;19990;-56
2022/01/04 04:23:11;;;;;;;;;;;7.70;99.90;;;;;;5141106;27;19934;-57
2022/01/04 04:25:37;;;;;;;;;;;7.70;99.90;;;;;;5149021;27;19934;-57
2022/01/04 04:28:02;;;;;;;;;;;7.70;99.90;;;;;;5133515;27;20103;-56
2022/01/04 04:30:28;;;;;;;;;;;7.80;99.90;;;;;;5147365;27;19996;-56
2022/01/04 04:32:54;;;;;;;;;;;7.70;99.90;;;;;;5140906;27;19931;-57
2022/01/04 04:35:20;;;;;;;;;;;7.80;99.90;;;;;;5140688;27;19931;-57
2022/01/04 04:37:45;;;;;;;;;;;7.80;99.90;;;;;;5135520;27;19927;-56
2022/01/04 04:40:11;;;;;;;;;;;7.80;99.90;;;;;;5146989;27;19927;-57
2022/01/04 04:42:37;;;;;;;;;;;7.80;99.90;;;;;;5144291;27;19923;-55
2022/01/04 04:45:02;;;;;;;;;;;7.80;99.90;;;;;;5139698;27;20266;-56
2022/01/04 04:47:28;;;;;;;;;;;7.80;99.90;;;;;;5143579;27;20019;-56
2022/01/04 04:49:54;;;;;;;;;;;7.80;99.90;;;;;;5134182;27;20278;-57
2022/01/04 04:52:20;;;;;;;;;;;7.80;99.90;;;;;;5146279;27;19933;-56
2022/01/04 04:54:45;;;;;;;;;;;7.80;99.90;;;;;;5136988;27;20503;-56
2022/01/04 04:57:11;;;;;;;;;;;7.80;99.90;;;;;;5140411;27;19962;-55
2022/01/04 04:59:36;;;;;;;;;;;8.00;99.90;;;;;;5142316;27;19931;-57
2022/01/04 05:02:02;;;;;;;;;;;7.90;99.90;;;;;;5132213;27;20023;-56
2022/01/04 05:04:28;;;;;;;;;;;7.80;99.90;;;;;;5137213;27;19983;-56
2022/01/04 05:06:53;;;;;;;;;;;7.80;99.90;;;;;;5142692;27;20385;-56
2022/01/04 05:09:19;;;;;;;;;;;7.80;99.90;;;;;;5128082;27;20052;-57
2022/01/04 05:11:45;;;;;;;;;;;7.80;99.90;;;;;;5142461;27;20400;-56
2022/01/04 05:14:11;;;;;;;;;;;7.80;99.90;;;;;;5132244;27;19923;-57
2022/01/04 05:16:36;;;;;;;;;;;7.80;99.90;;;;;;5145468;27;19978;-57
2022/01/04 05:19:02;;;;;;;;;;;7.80;99.90;;;;;;5137504;27;19927;-58
2022/01/04 05:21:27;;;;;;;;;;;7.80;99.90;;;;;;5137690;27;19932;-60
2022/01/04 05:23:54;;;;;;;;;;;8.10;99.90;;;;;;5142585;27;19923;-58
2022/01/04 05:26:20;;;;;;;;;;;8.20;99.90;;;;;;5146710;27;20010;-57
2022/01/04 05:28:46;;;;;;;;;;;7.80;99.90;;;;;;5136624;27;20009;-61
2022/01/04 05:31:14;;;;;;;;;;;7.80;99.90;;;;;;5139767;27;20269;-65
2022/01/04 05:33:40;;;;;;;;;;;7.80;99.90;;;;;;5143626;27;20333;-64
2022/01/04 05:36:05;;;;;;;;;;;7.80;99.90;;;;;;5133146;27;20663;-65
2022/01/04 05:38:31;;;;;;;;;;;7.80;99.90;;;;;;5143698;27;19929;-67
2022/01/04 05:40:57;;;;;;;;;;;7.80;99.90;;;;;;5131474;27;19974;-64
2022/01/04 05:43:22;;;;;;;;;;;7.80;99.90;;;;;;5135495;27;20416;-64
2022/01/04 05:45:48;;;;;;;;;;;7.80;99.90;;;;;;5134032;27;20034;-66
2022/01/04 05:48:14;;;;;;;;;;;7.80;99.90;;;;;;5146376;27;19950;-65
2022/01/04 05:50:39;;;;;;;;;;;7.80;99.90;;;;;;5134891;27;19945;-67
2022/01/04 05:53:05;;;;;;;;;;;7.80;99.90;;;;;;5140532;27;19931;-65
2022/01/04 05:55:31;;;;;;;;;;;8.30;99.90;;;;;;5136145;27;20369;-63
2022/01/04 05:57:56;;;;;;;;;;;7.80;99.90;;;;;;5133847;27;19927;-69
2022/01/04 06:00:22;;;;;;;;;;;7.80;99.90;;;;;;5131921;27;19934;-55
2022/01/04 06:02:48;;;;;;;;;;;7.80;99.90;;;;;;5146497;27;19926;-57
2022/01/04 06:05:13;;;;;;;;;;;7.80;99.90;;;;;;5139213;27;19927;-58
2022/01/04 06:07:39;;;;;;;;;;;7.80;99.90;;;;;;5137176;27;20269;-55
2022/01/04 06:10:06;;;;;;;;;;;7.80;99.90;;;;;;5131201;27;19978;-56
2022/01/04 06:15:02;;;;;;;;;;;8.30;99.90;;;;;;5140946;27;20367;-56
2022/01/04 06:17:28;;;;;;;;;;;7.80;99.90;;;;;;5141339;27;20298;-58
2022/01/04 06:19:55;;;;;;;;;;;7.70;99.90;;;;;;5132988;27;19931;-56
2022/01/04 06:22:24;;;;;;;;;;;7.70;99.90;;;;;;5145363;27;19927;-60
2022/01/04 06:24:50;;;;;;;;;;;7.70;99.90;;;;;;5136007;27;20046;-59
2022/01/04 06:27:16;;;;;;;;;;;7.70;99.90;;;;;;5138223;27;20395;-56
2022/01/04 06:29:42;;;;;;;;;;;7.70;99.90;;;;;;5143650;27;19931;-56
2022/01/04 06:32:08;;;;;;;;;;;7.70;99.90;;;;;;5131634;27;19931;-58
2022/01/04 06:34:34;;;;;;;;;;;7.70;99.90;;;;;;5144330;27;19927;-57
2022/01/04 06:37:00;;;;;;;;;;;7.70;99.90;;;;;;5131348;27;19928;-58
2022/01/04 06:39:26;;;;;;;;;;;7.70;99.90;;;;;;5140648;27;19934;-60
2022/01/04 06:41:52;;;;;;;;;;;7.70;99.90;;;;;;5145934;27;19977;-56
2022/01/04 06:44:17;;;;;;;;;;;7.70;99.90;;;;;;5132323;27;19935;-56
2022/01/04 06:46:45;;;;;;;;;;;8.10;99.90;;;;;;5142738;27;20376;-57
2022/01/04 06:49:20;;;;;;;;;;;7.70;99.90;;;;;;5138702;27;19934;-56
2022/01/04 06:51:46;;;;;;;;;;;7.70;99.90;;;;;;5133349;27;19970;-56
2022/01/04 06:54:13;;;;;;;;;;;7.70;99.90;;;;;;5145568;27;20334;-59
2022/01/04 06:56:39;;;;;;;;;;;7.70;99.90;;;;;;5133277;27;19997;-56
2022/01/04 06:59:06;;;;;;;;;;;7.80;99.90;;;;;;5133531;27;19927;-56
2022/01/04 07:01:33;;;;;;;;;;;7.70;99.90;;;;;;5136675;27;19927;-57
2022/01/04 07:03:59;;;;;;;;;;;7.80;99.90;;;;;;5132105;27;19981;-59
2022/01/04 07:06:24;;;;;;;;;;;7.80;99.90;;;;;;5130848;27;19932;-55
2022/01/04 07:08:50;;;;;;;;;;;8.00;99.90;;;;;;5130356;27;19927;-58
2022/01/04 07:11:16;;;;;;;;;;;7.80;99.90;;;;;;5138928;27;19934;-57
2022/01/04 07:13:42;;;;;;;;;;;7.90;99.90;;;;;;5132543;27;19927;-58
2022/01/04 07:16:07;;;;;;;;;;;7.70;99.90;;;;;;5129482;27;20526;-56
2022/01/04 07:18:33;;;;;;;;;;;7.80;99.90;;;;;;5141570;27;19974;-58
2022/01/04 07:20:59;;;;;;;;;;;7.80;99.90;;;;;;5133617;27;20311;-56
2022/01/04 07:23:24;;;;;;;;;;;7.80;99.90;;;;;;5122302;27;19927;-57
2022/01/04 07:25:51;;;;;;;;;;;7.80;99.90;;;;;;5136952;27;19931;-57
2022/01/04 07:28:16;;;;;;;;;;;7.70;99.90;;;;;;5126738;27;20382;-57
2022/01/04 07:30:42;;;;;;;;;;;7.90;99.90;;;;;;5127638;27;19927;-57
2022/01/04 07:33:07;;;;;;;;;;;7.70;99.90;;;;;;5128785;27;20416;-56
2022/01/04 07:35:33;;;;;;;;;;;7.80;99.90;;;;;;5135989;27;19931;-56
2022/01/04 07:37:59;;;;;;;;;;;7.70;99.90;;;;;;5141441;27;20290;-57
2022/01/04 07:40:24;;;;;;;;;;;7.70;99.90;;;;;;5140608;27;19927;-55
2022/01/04 07:42:50;;;;;;;;;;;7.60;99.90;;;;;;5132613;27;19927;-56
2022/01/04 07:45:15;;;;;;;;;;;7.60;99.90;;;;;;5141909;27;19929;-56
2022/01/04 07:47:41;;;;;;;;;;;7.60;99.90;;;;;;5135081;27;20425;-60
2022/01/04 07:50:07;;;;;;;;;;;7.60;99.90;;;;;;5133952;27;20354;-62
2022/01/04 07:52:33;;;;;;;;;;;7.60;99.90;;;;;;5136877;27;19939;-66
2022/01/04 07:54:59;;;;;;;;;;;7.60;99.90;;;;;;5130484;27;19927;-61
2022/01/04 07:57:25;;;;;;;;;;;7.70;99.90;;;;;;5132595;27;19927;-68
2022/01/04 07:59:50;;;;;;;;;;;7.60;99.90;;;;;;5138611;27;19928;-68
2022/01/04 08:02:16;;;;;;;;;;;7.80;99.90;;;;;;5130574;27;19966;-63
2022/01/04 08:04:41;;;;;;;;;;;7.70;99.90;;;;;;5138620;27;20843;-65
2022/01/04 08:07:07;;;;;;;;;;;7.70;99.90;;;;;;5139629;27;19928;-59
2022/01/04 08:09:32;;;;;;;;;;;7.70;99.90;;;;;;5119340;27;19927;-59
2022/01/04 08:11:58;;;;;;;;;;;7.70;99.90;;;;;;5132613;27;19984;-65
2022/01/04 08:14:24;;;;;;;;;;;8.00;99.90;;;;;;5134491;27;19934;-62
2022/01/04 08:16:49;;;;;;;;;;;7.70;99.90;;;;;;5130108;27;20045;-60
2022/01/04 08:19:15;;;;;;;;;;;7.40;99.90;;;;;;5117277;27;19927;-61
2022/01/04 08:21:40;;;;;;;;;;;7.40;99.90;;;;;;5143916;27;19980;-65
2022/01/04 08:24:06;;;;;;;;;;;7.60;99.90;;;;;;5130318;27;19928;-62
2022/01/04 08:26:31;;;;;;;;;;;7.40;99.90;;;;;;5130771;27;20438;-62
2022/01/04 08:28:57;;;;;;;;;;;7.40;99.90;;;;;;5144790;27;20329;-64
2022/01/04 08:31:23;;;;;;;;;;;7.30;99.90;;;;;;5133174;27;19939;-62
2022/01/04 08:33:48;;;;;;;;;;;7.30;99.90;;;;;;5129087;27;19931;-56
2022/01/04 08:36:14;;;;;;;;;;;7.30;99.90;;;;;;5132045;27;19980;-60
2022/01/04 08:38:40;;;;;;;;;;;7.60;99.90;;;;;;5144443;27;19949;-60
2022/01/04 08:41:06;;;;;;;;;;;7.30;99.90;;;;;;5136727;27;19930;-64
2022/01/04 08:43:32;;;;;;;;;;;7.30;99.90;;;;;;5128447;27;19927;-60
2022/01/04 08:45:57;;;;;;;;;;;7.40;99.90;;;;;;5127692;27;19930;-61
2022/01/04 08:48:23;;;;;;;;;;;7.40;99.90;;;;;;5128379;27;20368;-61
2022/01/04 08:50:49;;;;;;;;;;;7.30;99.90;;;;;;5130869;27;19931;-58
2022/01/04 08:53:15;;;;;;;;;;;7.40;99.90;;;;;;5130794;27;20004;-61
2022/01/04 08:55:40;;;;;;;;;;;7.40;99.90;;;;;;5128828;27;19934;-57
2022/01/04 08:58:06;;;;;;;;;;;7.40;99.90;;;;;;5127678;27;19927;-57
2022/01/04 09:00:32;;;;;;;;;;;7.40;99.90;;;;;;5127407;27;20369;-57
2022/01/04 09:02:59;;;;;;;;;;;7.40;99.90;;;;;;5142753;27;20325;-56
2022/01/04 09:05:25;;;;;;;;;;;7.50;99.90;;;;;;5134135;27;20297;-56
2022/01/04 09:07:51;;;;;;;;;;;7.50;99.90;;;;;;5129534;27;19935;-57
2022/01/04 09:10:17;;;;;;;;;;;7.50;99.90;;;;;;5140421;27;19938;-57
2022/01/04 09:13:10;;;;;;;;;;;8.00;99.90;;;;;;5136367;27;19927;-59
2022/01/04 09:15:46;;;;;;;;;;;7.50;99.90;;;;;;5143134;27;19942;-59
2022/01/04 09:20:57;;;;;;;;;;;7.50;99.90;;;;;;5138239;27;19975;-56
2022/01/04 09:23:23;;;;;;;;;;;7.40;99.90;;;;;;5130401;27;19966;-61
2022/01/04 09:25:49;;;;;;;;;;;7.40;99.90;;;;;;5126959;27;20338;-65
2022/01/04 09:28:15;;;;;;;;;;;7.60;99.90;;;;;;5133201;27;20340;-66
2022/01/04 09:30:41;;;;;;;;;;;7.40;99.90;;;;;;5138736;27;20348;-68
2022/01/04 09:33:07;;;;;;;;;;;7.30;99.90;;;;;;5138460;27;20043;-67
2022/01/04 09:35:33;;;;;;;;;;;7.30;99.90;;;;;;5131325;27;20026;-68
2022/01/04 09:37:59;;;;;;;;;;;7.30;99.90;;;;;;5127789;27;19924;-62
2022/01/04 09:40:24;;;;;;;;;;;7.20;99.90;;;;;;5131928;27;19928;-62
2022/01/04 09:42:50;;;;;;;;;;;8.70;99.90;;;;;;5131601;27;19931;-61
2022/01/04 09:45:16;;;;;;;;;;;7.30;99.90;;;;;;5128355;27;19928;-57
2022/01/04 09:47:42;;;;;;;;;;;7.30;99.90;;;;;;5131487;27;19927;-60
2022/01/04 09:50:08;;;;;;;;;;;7.40;99.90;;;;;;5135811;27;19923;-58
2022/01/04 09:52:35;;;;;;;;;;;7.50;99.90;;;;;;5138371;27;19938;-62
2022/01/04 09:55:00;;;;;;;;;;;7.50;99.90;;;;;;5134554;27;19974;-65
2022/01/04 09:57:26;;;;;;;;;;;7.50;99.90;;;;;;5135843;27;19981;-64
2022/01/04 09:59:51;;;;;;;;;;;7.20;99.90;;;;;;5137401;27;19927;-58
2022/01/04 10:02:18;;;;;;;;;;;7.20;99.90;;;;;;5146306;27;20280;-58
2022/01/04 10:04:44;;;;;;;;;;;7.30;99.90;;;;;;5132457;27;20027;-61
2022/01/04 10:07:09;;;;;;;;;;;5.50;99.90;;;;;;5138362;27;20021;-64
2022/01/04 10:09:35;;;;;;;;;;;7.10;99.90;;;;;;5138060;27;20168;-59
2022/01/04 10:12:01;;;;;;;;;;;7.00;99.90;;;;;;5138370;27;19927;-64
2022/01/04 10:14:36;;;;;;;;;;;7.00;99.90;;;;;;5131042;27;19934;-55
2022/01/04 10:17:07;;;;;;;;;;;7.00;99.90;;;;;;5135966;27;19927;-57
2022/01/04 10:19:40;;;;;;;;;;;6.90;99.90;;;;;;5135730;27;19928;-59
2022/01/04 10:22:10;;;;;;;;;;;7.00;99.90;;;;;;5128891;27;20034;-59
2022/01/04 10:24:36;;;;;;;;;;;6.90;99.90;;;;;;5141082;27;19942;-56
2022/01/04 10:27:21;;;;;;;;;;;6.90;99.90;;;;;;5129007;27;19927;-61
2022/01/04 10:30:06;;;;;;;;;;;6.70;99.90;;;;;;5133172;27;20376;-66
2022/01/04 10:32:41;;;;;;;;;;;7.30;99.90;;;;;;5136171;27;19950;-60
2022/01/04 10:35:07;;;;;;;;;;;6.70;99.90;;;;;;5132191;27;19948;-58
2022/01/04 10:37:33;;;;;;;;;;;6.40;99.90;;;;;;5137937;27;20035;-68
2022/01/04 10:40:07;;;;;;;;;;;6.40;99.90;;;;;;5132244;27;19927;-58
2022/01/04 10:42:33;;;;;;;;;;;6.30;99.90;;;;;;5140516;27;19934;-57
2022/01/04 10:44:58;;;;;;;;;;;6.30;99.90;;;;;;5133650;27;19927;-56
2022/01/04 10:47:28;;;;;;;;;;;6.50;99.90;;;;;;5129661;27;20019;-56
2022/01/04 10:49:53;;;;;;;;;;;6.30;99.90;;;;;;5130803;27;19931;-56
2022/01/04 10:52:29;;;;;;;;;;;6.10;99.90;;;;;;5131199;27;19927;-57
2022/01/04 10:55:14;;;;;;;;;;;6.20;99.90;;;;;;5135245;27;21019;-60
2022/01/04 10:57:39;;;;;;;;;;;6.10;99.90;;;;;;5129461;27;19934;-60
2022/01/04 11:00:15;;;;;;;;;;;6.00;99.90;;;;;;5127324;27;19928;-56
2022/01/04 11:02:40;;;;;;;;;;;6.00;99.90;;;;;;5127984;27;19927;-63
2022/01/04 11:05:13;;;;;;;;;;;6.00;99.90;;;;;;5124020;27;19934;-62
2022/01/04 11:07:57;;;;;;;;;;;6.00;99.90;;;;;;5130053;27;19934;-57
2022/01/04 11:10:24;;;;;;;;;;;6.00;99.90;;;;;;5129161;27;20393;-58
2022/01/04 11:12:50;;;;;;;;;;;6.10;99.90;;;;;;5133729;27;19927;-67
2022/01/04 11:15:16;;;;;;;;;;;6.10;99.90;;;;;;5136042;27;20039;-65
2022/01/04 11:17:42;;;;;;;;;;;6.30;99.90;;;;;;5140302;27;20008;-63
2022/01/04 11:20:08;;;;;;;;;;;6.10;99.90;;;;;;5131123;27;20180;-58
2022/01/04 11:22:35;;;;;;;;;;;6.10;99.90;;;;;;5129832;27;19927;-58
2022/01/04 11:25:01;;;;;;;;;;;6.10;99.90;;;;;;5141589;27;19927;-56
2022/01/04 11:27:28;;;;;;;;;;;6.10;99.90;;;;;;5130989;27;19943;-56
2022/01/04 11:29:58;;;;;;;;;;;6.20;99.90;;;;;;5137878;27;20293;-58
2022/01/04 11:32:25;;;;;;;;;;;6.00;99.90;;;;;;5134269;27;19931;-57
2022/01/04 11:35:07;;;;;;;;;;;5.80;99.90;;;;;;5128162;27;20330;-60
2022/01/04 11:37:32;;;;;;;;;;;5.80;99.90;;;;;;5125175;27;19949;-56
2022/01/04 11:39:58;;;;;;;;;;;5.70;99.90;;;;;;5126042;27;20409;-56
2022/01/04 11:42:34;;;;;;;;;;;5.70;99.90;;;;;;5136732;27;19984;-58
2022/01/04 11:45:01;;;;;;;;;;;5.60;99.90;;;;;;5129650;27;20636;-56
2022/01/04 11:47:27;;;;;;;;;;;5.60;99.90;;;;;;5131750;27;19927;-57
2022/01/04 11:50:05;;;;;;;;;;;5.50;99.90;;;;;;5131229;27;20375;-56
2022/01/04 11:52:38;;;;;;;;;;;5.40;99.90;;;;;;5129683;27;20013;-55
2022/01/04 11:55:36;;;;;;;;;;;5.30;99.90;;;;;;5132694;27;20409;-58
2022/01/04 11:58:07;;;;;;;;;;;5.50;99.90;;;;;;5116860;27;19935;-60
2022/01/04 12:00:34;;;;;;;;;;;5.50;99.90;;;;;;5130623;27;20302;-58
2022/01/04 12:03:10;;;;;;;;;;;5.60;99.90;;;;;;5135664;27;19971;-58
2022/01/04 12:05:39;;;;;;;;;;;5.50;99.90;;;;;;5135978;27;19931;-60
2022/01/04 12:08:20;;;;;;;;;;;5.70;99.90;;;;;;5129130;27;19975;-61
2022/01/04 12:10:48;;;;;;;;;;;5.70;99.90;;;;;;5130959;27;20222;-61
2022/01/04 12:13:16;;;;;;;;;;;5.90;99.90;;;;;;5138931;27;19927;-60
2022/01/04 12:15:50;;;;;;;;;;;5.90;99.90;;;;;;5133258;27;19973;-62
2022/01/04 12:18:22;;;;;;;;;;;5.90;99.90;;;;;;5133964;27;19927;-61
2022/01/04 12:20:48;;;;;;;;;;;6.10;99.90;;;;;;5127530;27;19938;-63
2022/01/04 12:23:20;;;;;;;;;;;6.10;99.90;;;;;;5136543;27;19934;-62
2022/01/04 12:26:14;;;;;;;;;;;6.10;99.90;;;;;;5141796;27;19927;-62
2022/01/04 12:28:55;;;;;;;;;;;6.20;99.90;;;;;;5125750;27;19927;-61
2022/01/04 12:31:23;;;;;;;;;;;6.20;99.90;;;;;;5133584;27;19972;-61
2022/01/04 12:33:49;;;;;;;;;;;6.30;99.90;;;;;;5129215;27;19927;-59
2022/01/04 12:36:33;;;;;;;;;;;6.70;99.90;;;;;;5130121;27;19983;-63
2022/01/04 12:39:03;;;;;;;;;;;7.10;99.90;;;;;;5133128;27;20456;-61
2022/01/04 12:41:32;;;;;;;;;;;6.40;99.90;;;;;;5131884;27;20490;-60
2022/01/04 12:43:57;;;;;;;;;;;6.50;99.90;;;;;;5126047;27;19931;-62
2022/01/04 12:46:27;;;;;;;;;;;6.50;99.90;;;;;;5132028;27;20015;-60
2022/01/04 12:48:59;;;;;;;;;;;6.60;99.90;;;;;;5129205;27;19928;-63
2022/01/04 12:51:25;;;;;;;;;;;6.70;99.90;;;;;;5139874;27;19934;-63
2022/01/04 12:53:51;;;;;;;;;;;6.60;99.90;;;;;;5129638;27;19927;-64
2022/01/04 12:56:16;;;;;;;;;;;6.50;99.90;;;;;;5117770;27;19935;-63
2022/01/04 12:58:42;;;;;;;;;;;6.40;99.90;;;;;;5135075;27;19932;-62
2022/01/04 13:01:08;;;;;;;;;;;6.40;99.90;;;;;;5143625;27;20332;-64
2022/01/04 13:03:34;;;;;;;;;;;6.40;99.90;;;;;;5137088;27;20791;-64
2022/01/04 13:06:00;;;;;;;;;;;6.80;99.90;;;;;;5127375;27;19927;-64
2022/01/04 13:08:26;;;;;;;;;;;6.30;99.90;;;;;;5132963;27;19934;-63
2022/01/04 13:11:02;;;;;;;;;;;6.40;99.90;;;;;;5128244;27;19927;-61
2022/01/04 13:13:30;;;;;;;;;;;6.40;99.90;;;;;;5132660;27;19927;-58
2022/01/04 13:16:15;;;;;;;;;;;6.40;99.90;;;;;;5129644;27;19927;-61
2022/01/04 13:18:41;;;;;;;;;;;6.50;99.90;;;;;;5118183;27;20464;-61
2022/01/04 13:21:07;;;;;;;;;;;6.40;99.90;;;;;;5129659;27;20472;-58
2022/01/04 13:23:39;;;;;;;;;;;6.50;99.90;;;;;;5132278;27;19927;-61
2022/01/04 13:26:04;;;;;;;;;;;6.50;99.90;;;;;;5137672;27;19931;-65
2022/01/04 13:28:35;;;;;;;;;;;6.40;99.90;;;;;;5124615;27;21567;-58
2022/01/04 13:31:04;;;;;;;;;;;6.40;99.90;;;;;;5124673;27;20004;-59
2022/01/04 13:33:32;;;;;;;;;;;6.40;99.90;;;;;;5130944;27;19927;-59
2022/01/04 13:35:58;;;;;;;;;;;6.50;99.90;;;;;;5127688;27;19935;-58
2022/01/04 13:38:26;;;;;;;;;;;6.40;99.90;;;;;;5125032;27;19923;-60
2022/01/04 13:40:53;;;;;;;;;;;6.70;99.90;;;;;;5127652;27;20334;-58
2022/01/04 13:43:26;;;;;;;;;;;6.50;99.90;;;;;;5139284;27;20443;-58
2022/01/04 13:45:54;;;;;;;;;;;6.50;99.90;;;;;;5128879;27;19927;-60
2022/01/04 13:48:24;;;;;;;;;;;6.60;99.90;;;;;;5126304;27;19927;-61
2022/01/04 13:50:50;;;;;;;;;;;6.60;99.90;;;;;;5132421;27;20487;-61
2022/01/04 13:53:17;;;;;;;;;;;6.70;99.90;;;;;;5135531;27;19928;-59
2022/01/04 13:55:42;;;;;;;;;;;6.80;99.90;;;;;;5122502;27;20335;-59
2022/01/04 13:58:27;;;;;;;;;;;7.00;99.90;;;;;;5123852;27;19983;-62
2022/01/04 14:00:53;;;;;;;;;;;6.90;99.90;;;;;;5128979;27;20002;-61
2022/01/04 14:03:25;;;;;;;;;;;6.80;99.90;;;;;;5126154;27;20517;-63
2022/01/04 14:05:51;;;;;;;;;;;6.80;99.90;;;;;;5129723;27;20170;-62
2022/01/04 14:08:16;;;;;;;;;;;6.70;99.90;;;;;;5127674;27;19993;-63
2022/01/04 14:10:54;;;;;;;;;;;6.60;99.90;;;;;;5136813;27;19927;-60
2022/01/04 14:13:29;;;;;;;;;;;6.60;99.90;;;;;;5131677;27;20377;-59
2022/01/04 14:16:11;;;;;;;;;;;6.50;99.90;;;;;;5133186;27;19970;-60
2022/01/04 14:18:37;;;;;;;;;;;6.50;99.90;;;;;;5136555;27;20245;-60
2022/01/04 14:21:03;;;;;;;;;;;6.50;99.90;;;;;;5123558;27;19923;-62
2022/01/04 14:23:33;;;;;;;;;;;6.40;99.90;;;;;;5116247;27;20045;-59
2022/01/04 14:26:03;;;;;;;;;;;6.40;99.90;;;;;;5136243;27;20304;-58
2022/01/04 14:28:28;;;;;;;;;;;6.20;99.90;;;;;;5132569;27;19939;-62
2022/01/04 14:30:54;;;;;;;;;;;6.20;99.90;;;;;;5129407;27;19927;-60
2022/01/04 14:33:19;;;;;;;;;;;6.20;99.90;;;;;;5138369;27;19934;-60
2022/01/04 14:35:45;;;;;;;;;;;6.00;99.90;;;;;;5128757;27;20432;-60
2022/01/04 14:38:11;;;;;;;;;;;5.90;99.90;;;;;;5129331;27;19960;-64
2022/01/04 14:40:38;;;;;;;;;;;5.90;99.90;;;;;;5129886;27;19952;-58